createdAt,value
2016-10-22T00:00:13.835Z,0
2016-10-22T00:00:46.169Z,0
2016-10-22T00:01:18.498Z,0
2016-10-22T00:01:50.861Z,0
2016-10-22T00:02:23.197Z,0
2016-10-22T00:02:55.528Z,0
2016-10-22T00:03:27.854Z,0
2016-10-22T00:04:00.218Z,0
2016-10-22T00:04:32.546Z,0
2016-10-22T00:05:04.890Z,0
2016-10-22T00:05:37.206Z,0
2016-10-22T00:06:09.532Z,0
2016-10-22T00:06:41.883Z,0
2016-10-22T00:07:14.210Z,0
2016-10-22T00:07:46.532Z,0
2016-10-22T00:08:18.893Z,0
2016-10-22T00:08:51.233Z,0
2016-10-22T00:09:23.568Z,0
2016-10-22T00:09:55.900Z,0
2016-10-22T00:10:28.241Z,0
2016-10-22T00:11:00.549Z,0
2016-10-22T00:11:32.878Z,0
2016-10-22T00:12:05.209Z,0
2016-10-22T00:12:37.543Z,0
2016-10-22T00:13:09.872Z,0
2016-10-22T00:13:42.195Z,0
2016-10-22T00:14:14.519Z,0
2016-10-22T00:14:46.826Z,0
2016-10-22T00:15:19.151Z,0
2016-10-22T00:15:51.462Z,0
2016-10-22T00:16:23.785Z,0
2016-10-22T00:16:56.103Z,0
2016-10-22T00:17:28.436Z,0
2016-10-22T00:18:00.753Z,0
2016-10-22T00:18:33.084Z,0
2016-10-22T00:19:05.411Z,0
2016-10-22T00:19:37.736Z,0
2016-10-22T00:20:10.037Z,0
2016-10-22T00:20:42.395Z,0
2016-10-22T00:21:14.743Z,0
2016-10-22T00:21:47.068Z,0
2016-10-22T00:22:19.395Z,0
2016-10-22T00:22:51.730Z,0
2016-10-22T00:23:24.044Z,0
2016-10-22T00:23:56.341Z,0
2016-10-22T00:24:28.643Z,0
2016-10-22T00:25:00.970Z,0
2016-10-22T00:25:33.307Z,0
2016-10-22T00:26:05.635Z,0
2016-10-22T00:26:37.991Z,0
2016-10-22T00:27:10.338Z,0
2016-10-22T00:27:42.658Z,0
2016-10-22T00:28:14.990Z,0
2016-10-22T00:28:47.325Z,0
2016-10-22T00:29:19.681Z,0
2016-10-22T00:29:51.995Z,0
2016-10-22T00:30:24.300Z,0
2016-10-22T00:30:56.630Z,0
2016-10-22T00:31:28.981Z,0
2016-10-22T00:32:01.329Z,0
2016-10-22T00:32:33.649Z,0
2016-10-22T00:33:05.982Z,0
2016-10-22T00:33:38.317Z,0
2016-10-22T00:34:10.652Z,0
2016-10-22T00:34:42.988Z,0
2016-10-22T00:35:15.314Z,0
2016-10-22T00:35:47.638Z,0
2016-10-22T00:36:19.994Z,0
2016-10-22T00:36:52.327Z,0
2016-10-22T00:37:24.661Z,0
2016-10-22T00:37:56.972Z,0
2016-10-22T00:38:29.319Z,0
2016-10-22T00:39:01.638Z,0
2016-10-22T00:39:33.949Z,0
2016-10-22T00:40:06.287Z,0
2016-10-22T00:40:38.611Z,0
2016-10-22T00:41:10.936Z,0
2016-10-22T00:41:43.270Z,0
2016-10-22T00:42:15.606Z,0
2016-10-22T00:42:47.939Z,0
2016-10-22T00:43:20.278Z,0
2016-10-22T00:43:52.604Z,0
2016-10-22T00:44:24.939Z,0
2016-10-22T00:44:57.267Z,0
2016-10-22T00:45:29.584Z,0
2016-10-22T00:46:01.902Z,0
2016-10-22T00:46:34.265Z,0
2016-10-22T00:47:06.587Z,0
2016-10-22T00:47:38.946Z,0
2016-10-22T00:48:11.313Z,0
2016-10-22T00:48:43.667Z,0
2016-10-22T00:49:15.993Z,0
2016-10-22T00:49:48.340Z,0
2016-10-22T00:50:20.671Z,0
2016-10-22T00:50:53.001Z,0
2016-10-22T00:51:25.321Z,0
2016-10-22T00:51:57.662Z,0
2016-10-22T00:52:29.996Z,0
2016-10-22T00:53:02.341Z,0
2016-10-22T00:53:34.713Z,0
2016-10-22T00:54:07.032Z,0
2016-10-22T00:54:39.350Z,0
2016-10-22T00:55:11.674Z,0
2016-10-22T00:55:43.993Z,0
2016-10-22T00:56:16.356Z,0
2016-10-22T00:56:48.684Z,0
2016-10-22T00:57:21.003Z,0
2016-10-22T00:57:53.332Z,0
2016-10-22T00:58:25.663Z,0
2016-10-22T00:58:57.987Z,0
2016-10-22T00:59:30.320Z,0
2016-10-22T01:00:02.651Z,0
2016-10-22T01:00:34.971Z,0
2016-10-22T01:01:07.295Z,0
2016-10-22T01:01:39.624Z,0
2016-10-22T01:02:11.941Z,0
2016-10-22T01:02:44.253Z,0
2016-10-22T01:03:16.587Z,0
2016-10-22T01:03:48.923Z,0
2016-10-22T01:04:21.228Z,0
2016-10-22T01:04:53.559Z,0
2016-10-22T01:05:25.931Z,0
2016-10-22T01:05:58.250Z,0
2016-10-22T01:06:30.588Z,0
2016-10-22T01:07:02.894Z,0
2016-10-22T01:07:35.232Z,0
2016-10-22T01:08:07.568Z,0
2016-10-22T01:08:39.889Z,0
2016-10-22T01:09:12.222Z,0
2016-10-22T01:09:44.553Z,0
2016-10-22T01:10:16.872Z,0
2016-10-22T01:10:49.178Z,0
2016-10-22T01:11:21.491Z,0
2016-10-22T01:11:53.829Z,0
2016-10-22T01:12:26.196Z,0
2016-10-22T01:12:58.543Z,0
2016-10-22T01:13:30.873Z,0
2016-10-22T01:14:03.224Z,0
2016-10-22T01:14:35.588Z,0
2016-10-22T01:15:07.919Z,0
2016-10-22T01:15:40.247Z,0
2016-10-22T01:16:12.583Z,0
2016-10-22T01:16:44.923Z,0
2016-10-22T01:17:17.252Z,0
2016-10-22T01:17:49.571Z,0
2016-10-22T01:18:21.897Z,0
2016-10-22T01:18:54.239Z,0
2016-10-22T01:19:26.564Z,0
2016-10-22T01:19:58.923Z,0
2016-10-22T01:20:31.245Z,0
2016-10-22T01:21:03.575Z,0
2016-10-22T01:21:35.898Z,0
2016-10-22T01:22:08.219Z,0
2016-10-22T01:22:40.560Z,0
2016-10-22T01:23:12.885Z,0
2016-10-22T01:23:45.206Z,0
2016-10-22T01:24:17.531Z,0
2016-10-22T01:24:49.847Z,0
2016-10-22T01:25:22.177Z,0
2016-10-22T01:25:54.506Z,0
2016-10-22T01:26:26.824Z,0
2016-10-22T01:26:59.156Z,0
2016-10-22T01:27:31.554Z,0
2016-10-22T01:28:03.879Z,0
2016-10-22T01:28:36.206Z,0
2016-10-22T01:29:08.553Z,0
2016-10-22T01:29:40.879Z,0
2016-10-22T01:30:13.221Z,0
2016-10-22T01:30:45.540Z,0
2016-10-22T01:31:17.882Z,0
2016-10-22T01:31:50.212Z,0
2016-10-22T01:32:22.559Z,0
2016-10-22T01:32:54.876Z,0
2016-10-22T01:33:27.218Z,0
2016-10-22T01:33:59.549Z,0
2016-10-22T01:34:31.894Z,0
2016-10-22T01:35:04.236Z,0
2016-10-22T01:35:36.564Z,0
2016-10-22T01:36:08.890Z,0
2016-10-22T01:36:41.210Z,0
2016-10-22T01:37:13.535Z,0
2016-10-22T01:37:45.870Z,0
2016-10-22T01:38:18.195Z,0
2016-10-22T01:38:50.557Z,0
2016-10-22T01:39:22.876Z,0
2016-10-22T01:39:55.214Z,0
2016-10-22T01:40:27.560Z,0
2016-10-22T01:40:59.929Z,0
2016-10-22T01:41:32.961Z,0
2016-10-22T01:42:05.285Z,0
2016-10-22T01:42:37.622Z,0
2016-10-22T01:43:09.932Z,0
2016-10-22T01:43:42.260Z,0
2016-10-22T01:44:14.619Z,0
2016-10-22T01:44:46.942Z,0
2016-10-22T01:45:19.277Z,0
2016-10-22T01:45:51.612Z,0
2016-10-22T01:46:23.943Z,0
2016-10-22T01:46:56.258Z,0
2016-10-22T01:47:28.621Z,0
2016-10-22T01:48:00.950Z,0
2016-10-22T01:48:33.299Z,0
2016-10-22T01:49:05.635Z,0
2016-10-22T01:49:37.949Z,0
2016-10-22T01:50:10.260Z,0
2016-10-22T01:50:42.591Z,0
2016-10-22T01:51:14.927Z,0
2016-10-22T01:51:47.263Z,0
2016-10-22T01:52:19.589Z,0
2016-10-22T01:52:51.909Z,0
2016-10-22T01:53:24.245Z,0
2016-10-22T01:53:56.586Z,0
2016-10-22T01:54:28.905Z,0
2016-10-22T01:55:01.229Z,0
2016-10-22T01:55:33.593Z,0
2016-10-22T01:56:05.950Z,0
2016-10-22T01:56:38.280Z,0
2016-10-22T01:57:10.615Z,0
2016-10-22T01:57:42.954Z,0
2016-10-22T01:58:15.272Z,0
2016-10-22T01:58:47.614Z,0
2016-10-22T01:59:19.942Z,0
2016-10-22T01:59:52.270Z,0
2016-10-22T02:00:24.609Z,0
2016-10-22T02:00:57.021Z,0
2016-10-22T02:01:29.358Z,0
2016-10-22T02:02:01.685Z,0
2016-10-22T02:02:34.015Z,0
2016-10-22T02:03:06.343Z,0
2016-10-22T02:03:38.672Z,0
2016-10-22T02:04:11.010Z,0
2016-10-22T02:04:43.340Z,0
2016-10-22T02:05:15.674Z,0
2016-10-22T02:05:47.978Z,0
2016-10-22T02:06:20.313Z,0
2016-10-22T02:06:52.637Z,0
2016-10-22T02:07:24.950Z,0
2016-10-22T02:07:57.274Z,0
2016-10-22T02:08:29.594Z,0
2016-10-22T02:09:01.911Z,0
2016-10-22T02:09:34.245Z,0
2016-10-22T02:10:06.593Z,0
2016-10-22T02:10:38.925Z,0
2016-10-22T02:11:11.264Z,0
2016-10-22T02:11:43.596Z,0
2016-10-22T02:12:15.969Z,0
2016-10-22T02:12:48.291Z,0
2016-10-22T02:13:20.622Z,0
2016-10-22T02:13:52.958Z,0
2016-10-22T02:14:25.290Z,0
2016-10-22T02:14:57.615Z,0
2016-10-22T02:15:29.971Z,0
2016-10-22T02:16:02.306Z,0
2016-10-22T02:16:34.649Z,0
2016-10-22T02:17:06.982Z,0
2016-10-22T02:17:39.296Z,0
2016-10-22T02:18:11.634Z,0
2016-10-22T02:18:43.958Z,0
2016-10-22T02:19:16.278Z,0
2016-10-22T02:19:48.613Z,0
2016-10-22T02:20:20.950Z,0
2016-10-22T02:20:53.282Z,0
2016-10-22T02:21:25.619Z,0
2016-10-22T02:21:57.933Z,0
2016-10-22T02:22:30.285Z,0
2016-10-22T02:23:02.616Z,0
2016-10-22T02:23:34.953Z,0
2016-10-22T02:24:07.311Z,0
2016-10-22T02:24:39.629Z,0
2016-10-22T02:25:11.958Z,0
2016-10-22T02:25:44.294Z,0
2016-10-22T02:26:16.629Z,0
2016-10-22T02:26:48.967Z,0
2016-10-22T02:27:21.297Z,0
2016-10-22T02:27:53.635Z,0
2016-10-22T02:28:26.014Z,0
2016-10-22T02:28:58.348Z,0
2016-10-22T02:29:30.667Z,0
2016-10-22T02:30:03.010Z,0
2016-10-22T02:30:35.322Z,0
2016-10-22T02:31:07.636Z,0
2016-10-22T02:31:39.949Z,0
2016-10-22T02:32:12.270Z,0
2016-10-22T02:32:44.585Z,0
2016-10-22T02:33:16.921Z,0
2016-10-22T02:33:49.243Z,0
2016-10-22T02:34:21.576Z,0
2016-10-22T02:34:53.949Z,0
2016-10-22T02:35:26.284Z,0
2016-10-22T02:35:58.613Z,0
2016-10-22T02:36:30.947Z,0
2016-10-22T02:37:03.263Z,0
2016-10-22T02:37:35.611Z,0
2016-10-22T02:38:07.944Z,0
2016-10-22T02:38:40.286Z,0
2016-10-22T02:39:12.610Z,0
2016-10-22T02:39:44.941Z,0
2016-10-22T02:40:17.321Z,0
2016-10-22T02:40:49.643Z,0
2016-10-22T02:41:21.979Z,0
2016-10-22T02:41:54.312Z,0
2016-10-22T02:42:26.641Z,0
2016-10-22T02:42:58.978Z,0
2016-10-22T02:43:31.308Z,0
2016-10-22T02:44:03.633Z,0
2016-10-22T02:44:35.952Z,0
2016-10-22T02:45:08.265Z,0
2016-10-22T02:45:40.628Z,0
2016-10-22T02:46:12.987Z,0
2016-10-22T02:46:45.314Z,0
2016-10-22T02:47:17.639Z,0
2016-10-22T02:47:49.985Z,0
2016-10-22T02:48:22.353Z,0
2016-10-22T02:48:54.670Z,0
2016-10-22T02:49:27.027Z,0
2016-10-22T02:49:59.369Z,0
2016-10-22T02:50:31.703Z,0
2016-10-22T02:51:04.032Z,0
2016-10-22T02:51:36.399Z,0
2016-10-22T02:52:08.730Z,0
2016-10-22T02:52:41.063Z,0
2016-10-22T02:53:13.435Z,0
2016-10-22T02:53:45.772Z,0
2016-10-22T02:54:18.134Z,0
2016-10-22T02:54:50.460Z,0
2016-10-22T02:55:22.815Z,0
2016-10-22T02:55:55.172Z,0
2016-10-22T02:56:27.517Z,0
2016-10-22T02:56:59.856Z,0
2016-10-22T02:57:32.193Z,0
2016-10-22T02:58:04.517Z,0
2016-10-22T02:58:36.840Z,0
2016-10-22T02:59:09.153Z,0
2016-10-22T02:59:41.489Z,0
2016-10-22T03:00:13.834Z,0
2016-10-22T03:00:46.165Z,0
2016-10-22T03:01:18.465Z,0
2016-10-22T03:01:50.814Z,0
2016-10-22T03:02:23.143Z,0
2016-10-22T03:02:55.466Z,0
2016-10-22T03:03:27.787Z,0
2016-10-22T03:04:00.116Z,0
2016-10-22T03:04:32.436Z,0
2016-10-22T03:05:04.759Z,0
2016-10-22T03:05:37.089Z,0
2016-10-22T03:06:09.425Z,0
2016-10-22T03:06:41.788Z,0
2016-10-22T03:07:14.102Z,0
2016-10-22T03:07:46.424Z,0
2016-10-22T03:08:18.751Z,0
2016-10-22T03:08:51.073Z,0
2016-10-22T03:09:23.412Z,0
2016-10-22T03:09:55.754Z,0
2016-10-22T03:10:28.079Z,0
2016-10-22T03:11:00.425Z,0
2016-10-22T03:11:32.783Z,0
2016-10-22T03:12:05.092Z,0
2016-10-22T03:12:38.980Z,0
2016-10-22T03:13:11.316Z,0
2016-10-22T03:13:43.640Z,0
2016-10-22T03:14:15.974Z,0
2016-10-22T03:14:48.303Z,0
2016-10-22T03:15:20.626Z,0
2016-10-22T03:15:52.931Z,0
2016-10-22T03:16:25.268Z,0
2016-10-22T03:16:57.674Z,0
2016-10-22T03:17:30.031Z,0
2016-10-22T03:18:02.442Z,0
2016-10-22T03:18:34.772Z,0
2016-10-22T03:19:07.103Z,0
2016-10-22T03:19:39.433Z,0
2016-10-22T03:20:11.768Z,0
2016-10-22T03:20:44.103Z,0
2016-10-22T03:21:16.420Z,0
2016-10-22T03:21:48.731Z,0
2016-10-22T03:22:21.071Z,0
2016-10-22T03:22:53.393Z,0
2016-10-22T03:23:25.721Z,0
2016-10-22T03:23:58.052Z,0
2016-10-22T03:24:30.374Z,0
2016-10-22T03:25:02.710Z,0
2016-10-22T03:25:35.057Z,0
2016-10-22T03:26:07.390Z,0
2016-10-22T03:26:39.705Z,0
2016-10-22T03:27:12.025Z,0
2016-10-22T03:27:44.356Z,0
2016-10-22T03:28:16.679Z,0
2016-10-22T03:28:48.999Z,0
2016-10-22T03:29:21.321Z,0
2016-10-22T03:29:53.671Z,0
2016-10-22T03:30:25.991Z,0
2016-10-22T03:30:58.321Z,0
2016-10-22T03:31:30.643Z,0
2016-10-22T03:32:02.971Z,0
2016-10-22T03:32:35.296Z,0
2016-10-22T03:33:07.642Z,0
2016-10-22T03:33:39.983Z,0
2016-10-22T03:34:12.317Z,0
2016-10-22T03:34:44.643Z,0
2016-10-22T03:35:16.975Z,0
2016-10-22T03:35:49.338Z,0
2016-10-22T03:36:21.670Z,0
2016-10-22T03:36:53.993Z,0
2016-10-22T03:37:26.324Z,0
2016-10-22T03:37:58.664Z,0
2016-10-22T03:38:31.059Z,0
2016-10-22T03:39:03.387Z,0
2016-10-22T03:39:35.705Z,0
2016-10-22T03:40:08.016Z,0
2016-10-22T03:40:40.323Z,0
2016-10-22T03:41:12.645Z,0
2016-10-22T03:41:44.958Z,0
2016-10-22T03:42:17.277Z,0
2016-10-22T03:42:49.640Z,0
2016-10-22T03:43:21.999Z,0
2016-10-22T03:43:54.324Z,0
2016-10-22T03:44:26.679Z,0
2016-10-22T03:44:58.991Z,0
2016-10-22T03:45:31.307Z,0
2016-10-22T03:46:03.638Z,0
2016-10-22T03:46:35.967Z,0
2016-10-22T03:47:08.298Z,0
2016-10-22T03:47:40.620Z,0
2016-10-22T03:48:12.947Z,0
2016-10-22T03:48:45.299Z,0
2016-10-22T03:49:17.623Z,0
2016-10-22T03:49:49.934Z,0
2016-10-22T03:50:22.264Z,0
2016-10-22T03:50:54.603Z,0
2016-10-22T03:51:26.966Z,0
2016-10-22T03:51:59.297Z,0
2016-10-22T03:52:31.627Z,0
2016-10-22T03:53:03.951Z,0
2016-10-22T03:53:36.273Z,0
2016-10-22T03:54:08.604Z,0
2016-10-22T03:54:40.941Z,0
2016-10-22T03:55:13.266Z,0
2016-10-22T03:55:45.592Z,0
2016-10-22T03:56:17.935Z,0
2016-10-22T03:56:50.274Z,0
2016-10-22T03:57:22.635Z,0
2016-10-22T03:57:54.972Z,0
2016-10-22T03:58:27.318Z,0
2016-10-22T03:58:59.643Z,0
2016-10-22T03:59:31.989Z,0
2016-10-22T04:00:04.318Z,0
2016-10-22T04:00:36.659Z,0
2016-10-22T04:01:09.003Z,0
2016-10-22T04:01:41.354Z,0
2016-10-22T04:02:13.676Z,0
2016-10-22T04:02:45.981Z,0
2016-10-22T04:03:18.303Z,0
2016-10-22T04:03:50.628Z,0
2016-10-22T04:04:22.964Z,0
2016-10-22T04:04:55.313Z,0
2016-10-22T04:05:27.631Z,0
2016-10-22T04:05:59.961Z,0
2016-10-22T04:06:32.292Z,0
2016-10-22T04:07:04.600Z,0
2016-10-22T04:07:36.926Z,0
2016-10-22T04:08:09.274Z,0
2016-10-22T04:08:41.591Z,0
2016-10-22T04:09:13.914Z,0
2016-10-22T04:09:46.223Z,0
2016-10-22T04:10:18.534Z,0
2016-10-22T04:10:50.862Z,0
2016-10-22T04:11:23.190Z,0
2016-10-22T04:11:55.508Z,0
2016-10-22T04:12:27.829Z,0
2016-10-22T04:13:00.160Z,0
2016-10-22T04:13:32.503Z,0
2016-10-22T04:14:04.838Z,0
2016-10-22T04:14:37.180Z,0
2016-10-22T04:15:09.539Z,0
2016-10-22T04:15:41.882Z,0
2016-10-22T04:16:14.207Z,0
2016-10-22T04:16:46.545Z,0
2016-10-22T04:17:18.844Z,0
2016-10-22T04:17:51.166Z,0
2016-10-22T04:18:23.497Z,0
2016-10-22T04:18:55.818Z,0
2016-10-22T04:19:28.158Z,0
2016-10-22T04:20:00.500Z,0
2016-10-22T04:20:32.810Z,0
2016-10-22T04:21:05.161Z,0
2016-10-22T04:21:37.505Z,0
2016-10-22T04:22:09.862Z,0
2016-10-22T04:22:42.192Z,0
2016-10-22T04:23:14.533Z,0
2016-10-22T04:23:46.850Z,0
2016-10-22T04:24:19.239Z,0
2016-10-22T04:24:51.580Z,0
2016-10-22T04:25:23.914Z,0
2016-10-22T04:25:56.248Z,0
2016-10-22T04:26:28.602Z,0
2016-10-22T04:27:00.950Z,0
2016-10-22T04:27:33.293Z,0
2016-10-22T04:28:05.650Z,0
2016-10-22T04:28:37.974Z,0
2016-10-22T04:29:10.342Z,0
2016-10-22T04:29:42.681Z,0
2016-10-22T04:30:15.019Z,0
2016-10-22T04:30:47.336Z,0
2016-10-22T04:31:19.666Z,0
2016-10-22T04:31:51.997Z,0
2016-10-22T04:32:24.332Z,0
2016-10-22T04:32:56.655Z,0
2016-10-22T04:33:28.973Z,0
2016-10-22T04:34:01.298Z,0
2016-10-22T04:34:33.619Z,0
2016-10-22T04:35:05.972Z,0
2016-10-22T04:35:38.302Z,0
2016-10-22T04:36:10.656Z,0
2016-10-22T04:36:42.986Z,0
2016-10-22T04:37:15.310Z,0
2016-10-22T04:37:47.641Z,0
2016-10-22T04:38:20.012Z,0
2016-10-22T04:38:52.334Z,0
2016-10-22T04:39:24.655Z,0
2016-10-22T04:39:56.954Z,0
2016-10-22T04:40:29.277Z,0
2016-10-22T04:41:01.606Z,0
2016-10-22T04:41:33.940Z,0
2016-10-22T04:42:06.274Z,0
2016-10-22T04:42:38.612Z,0
2016-10-22T04:43:10.936Z,0
2016-10-22T04:43:43.294Z,0
2016-10-22T04:44:15.605Z,0
2016-10-22T04:44:47.908Z,0
2016-10-22T04:45:20.260Z,0
2016-10-22T04:45:52.585Z,0
2016-10-22T04:46:24.972Z,0
2016-10-22T04:46:57.283Z,0
2016-10-22T04:47:29.620Z,0
2016-10-22T04:48:01.968Z,0
2016-10-22T04:48:34.285Z,0
2016-10-22T04:49:06.616Z,0
2016-10-22T04:49:38.943Z,0
2016-10-22T04:50:11.277Z,0
2016-10-22T04:50:43.615Z,0
2016-10-22T04:51:15.957Z,0
2016-10-22T04:51:48.283Z,0
2016-10-22T04:52:20.625Z,0
2016-10-22T04:52:52.993Z,0
2016-10-22T04:53:25.333Z,0
2016-10-22T04:53:57.665Z,0
2016-10-22T04:54:29.997Z,0
2016-10-22T04:55:02.334Z,0
2016-10-22T04:55:34.660Z,0
2016-10-22T04:56:07.887Z,0
2016-10-22T04:56:40.198Z,0
2016-10-22T04:57:12.527Z,0
2016-10-22T04:57:44.851Z,0
2016-10-22T04:58:17.186Z,0
2016-10-22T04:58:49.524Z,0
2016-10-22T04:59:21.846Z,0
2016-10-22T04:59:54.172Z,0
2016-10-22T05:00:26.507Z,0
2016-10-22T05:00:58.839Z,0
2016-10-22T05:01:31.163Z,0
2016-10-22T05:02:03.512Z,0
2016-10-22T05:02:35.849Z,0
2016-10-22T05:03:08.180Z,0
2016-10-22T05:03:40.523Z,0
2016-10-22T05:04:12.889Z,0
2016-10-22T05:04:45.234Z,0
2016-10-22T05:05:17.567Z,0
2016-10-22T05:05:49.893Z,0
2016-10-22T05:06:22.218Z,0
2016-10-22T05:06:54.528Z,0
2016-10-22T05:07:26.864Z,0
2016-10-22T05:07:59.208Z,0
2016-10-22T05:08:31.572Z,0
2016-10-22T05:09:03.905Z,0
2016-10-22T05:09:36.240Z,0
2016-10-22T05:10:08.547Z,0
2016-10-22T05:10:40.873Z,0
2016-10-22T05:11:13.234Z,0
2016-10-22T05:11:45.566Z,0
2016-10-22T05:12:17.898Z,0
2016-10-22T05:12:50.227Z,0
2016-10-22T05:13:22.555Z,0
2016-10-22T05:13:54.881Z,0
2016-10-22T05:14:27.252Z,0
2016-10-22T05:14:59.607Z,0
2016-10-22T05:15:31.926Z,0
2016-10-22T05:16:04.256Z,0
2016-10-22T05:16:36.580Z,0
2016-10-22T05:17:08.917Z,0
2016-10-22T05:17:41.242Z,0
2016-10-22T05:18:13.565Z,0
2016-10-22T05:18:45.892Z,0
2016-10-22T05:19:18.216Z,0
2016-10-22T05:19:50.534Z,0
2016-10-22T05:20:22.854Z,0
2016-10-22T05:20:55.187Z,0
2016-10-22T05:21:27.535Z,0
2016-10-22T05:21:59.867Z,0
2016-10-22T05:22:32.205Z,0
2016-10-22T05:23:04.538Z,0
2016-10-22T05:23:36.841Z,0
2016-10-22T05:24:09.184Z,0
2016-10-22T05:24:41.526Z,0
2016-10-22T05:25:13.869Z,0
2016-10-22T05:25:46.193Z,0
2016-10-22T05:26:18.510Z,0
2016-10-22T05:26:50.879Z,0
2016-10-22T05:27:23.215Z,0
2016-10-22T05:27:55.540Z,0
2016-10-22T05:28:27.867Z,0
2016-10-22T05:29:00.179Z,0
2016-10-22T05:29:32.503Z,0
2016-10-22T05:30:04.846Z,0
2016-10-22T05:30:37.172Z,0
2016-10-22T05:31:09.510Z,0
2016-10-22T05:31:41.828Z,0
2016-10-22T05:32:14.163Z,0
2016-10-22T05:32:46.492Z,0
2016-10-22T05:33:18.829Z,0
2016-10-22T05:33:51.148Z,0
2016-10-22T05:34:23.473Z,0
2016-10-22T05:34:55.814Z,0
2016-10-22T05:35:28.165Z,0
2016-10-22T05:36:00.491Z,0
2016-10-22T05:36:32.858Z,0
2016-10-22T05:37:05.202Z,0
2016-10-22T05:37:37.546Z,0
2016-10-22T05:38:09.873Z,0
2016-10-22T05:38:42.204Z,0
2016-10-22T05:39:14.532Z,0
2016-10-22T05:39:46.862Z,0
2016-10-22T05:40:19.194Z,0
2016-10-22T05:40:51.533Z,0
2016-10-22T05:41:23.855Z,0
2016-10-22T05:41:56.187Z,0
2016-10-22T05:42:28.532Z,0
2016-10-22T05:43:00.857Z,0
2016-10-22T05:43:33.188Z,0
2016-10-22T05:44:05.517Z,0
2016-10-22T05:44:37.821Z,0
2016-10-22T05:45:10.163Z,0
2016-10-22T05:45:42.484Z,0
2016-10-22T05:46:14.800Z,0
2016-10-22T05:46:47.119Z,0
2016-10-22T05:47:19.480Z,0
2016-10-22T05:47:51.802Z,0
2016-10-22T05:48:24.159Z,0
2016-10-22T05:48:56.475Z,0
2016-10-22T05:49:28.800Z,0
2016-10-22T05:50:01.170Z,0
2016-10-22T05:50:33.496Z,4
2016-10-22T05:51:05.825Z,4
2016-10-22T05:51:38.150Z,4
2016-10-22T05:52:10.476Z,4
2016-10-22T05:52:42.816Z,4
2016-10-22T05:53:15.154Z,4
2016-10-22T05:53:47.476Z,4
2016-10-22T05:54:19.807Z,0
2016-10-22T05:54:52.133Z,4
2016-10-22T05:55:24.456Z,4
2016-10-22T05:55:56.776Z,4
2016-10-22T05:56:29.090Z,4
2016-10-22T05:57:01.430Z,4
2016-10-22T05:57:33.760Z,8
2016-10-22T05:58:06.084Z,8
2016-10-22T05:58:38.490Z,8
2016-10-22T05:59:10.825Z,4
2016-10-22T05:59:43.162Z,8
2016-10-22T06:00:15.509Z,8
2016-10-22T06:00:47.836Z,12
2016-10-22T06:01:20.170Z,12
2016-10-22T06:01:52.507Z,12
2016-10-22T06:02:24.839Z,12
2016-10-22T06:02:57.158Z,8
2016-10-22T06:03:29.536Z,12
2016-10-22T06:04:01.879Z,12
2016-10-22T06:04:34.215Z,12
2016-10-22T06:05:06.552Z,12
2016-10-22T06:05:38.869Z,12
2016-10-22T06:06:11.188Z,16
2016-10-22T06:06:43.515Z,16
2016-10-22T06:07:15.855Z,12
2016-10-22T06:07:48.215Z,16
2016-10-22T06:08:20.541Z,12
2016-10-22T06:08:52.872Z,16
2016-10-22T06:09:25.206Z,16
2016-10-22T06:09:57.530Z,12
2016-10-22T06:10:29.864Z,16
2016-10-22T06:11:02.192Z,16
2016-10-22T06:11:34.530Z,12
2016-10-22T06:12:06.855Z,16
2016-10-22T06:12:39.190Z,20
2016-10-22T06:13:11.547Z,28
2016-10-22T06:13:43.892Z,24
2016-10-22T06:14:16.217Z,28
2016-10-22T06:14:48.544Z,32
2016-10-22T06:15:20.860Z,32
2016-10-22T06:15:53.173Z,28
2016-10-22T06:16:25.512Z,28
2016-10-22T06:16:57.834Z,32
2016-10-22T06:17:30.171Z,36
2016-10-22T06:18:02.506Z,36
2016-10-22T06:18:34.803Z,40
2016-10-22T06:19:07.124Z,36
2016-10-22T06:19:39.452Z,36
2016-10-22T06:20:11.765Z,32
2016-10-22T06:20:44.086Z,28
2016-10-22T06:21:16.409Z,28
2016-10-22T06:21:48.757Z,28
2016-10-22T06:22:21.092Z,28
2016-10-22T06:22:53.416Z,28
2016-10-22T06:23:25.757Z,32
2016-10-22T06:23:58.102Z,32
2016-10-22T06:24:30.427Z,32
2016-10-22T06:25:02.759Z,32
2016-10-22T06:25:35.076Z,36
2016-10-22T06:26:07.454Z,36
2016-10-22T06:26:39.811Z,36
2016-10-22T06:27:12.134Z,40
2016-10-22T06:27:44.458Z,36
2016-10-22T06:28:16.779Z,40
2016-10-22T06:28:49.110Z,36
2016-10-22T06:29:21.437Z,36
2016-10-22T06:29:53.783Z,40
2016-10-22T06:30:26.096Z,40
2016-10-22T06:30:58.402Z,40
2016-10-22T06:31:30.734Z,44
2016-10-22T06:32:03.079Z,44
2016-10-22T06:32:35.402Z,44
2016-10-22T06:33:07.767Z,44
2016-10-22T06:33:40.075Z,48
2016-10-22T06:34:12.404Z,52
2016-10-22T06:34:44.728Z,60
2016-10-22T06:35:17.053Z,64
2016-10-22T06:35:49.385Z,68
2016-10-22T06:36:21.712Z,68
2016-10-22T06:36:54.049Z,64
2016-10-22T06:37:26.383Z,60
2016-10-22T06:37:58.705Z,56
2016-10-22T06:38:31.026Z,56
2016-10-22T06:39:03.370Z,60
2016-10-22T06:39:35.711Z,64
2016-10-22T06:40:08.077Z,64
2016-10-22T06:40:40.414Z,64
2016-10-22T06:41:12.762Z,68
2016-10-22T06:41:45.079Z,68
2016-10-22T06:42:17.444Z,72
2016-10-22T06:42:49.784Z,80
2016-10-22T06:43:22.123Z,88
2016-10-22T06:43:54.450Z,104
2016-10-22T06:44:26.768Z,116
2016-10-22T06:44:59.074Z,132
2016-10-22T06:45:31.415Z,140
2016-10-22T06:46:03.741Z,140
2016-10-22T06:46:36.069Z,144
2016-10-22T06:47:08.406Z,152
2016-10-22T06:47:40.773Z,168
2016-10-22T06:48:13.083Z,172
2016-10-22T06:48:45.434Z,172
2016-10-22T06:49:17.747Z,172
2016-10-22T06:49:50.065Z,172
2016-10-22T06:50:22.415Z,164
2016-10-22T06:50:54.791Z,156
2016-10-22T06:51:27.119Z,156
2016-10-22T06:51:59.439Z,156
2016-10-22T06:52:31.774Z,160
2016-10-22T06:53:04.120Z,152
2016-10-22T06:53:36.441Z,140
2016-10-22T06:54:08.765Z,132
2016-10-22T06:54:41.075Z,128
2016-10-22T06:55:13.413Z,124
2016-10-22T06:55:45.742Z,120
2016-10-22T06:56:18.069Z,120
2016-10-22T06:56:50.398Z,120
2016-10-22T06:57:22.715Z,128
2016-10-22T06:57:55.045Z,132
2016-10-22T06:58:27.372Z,132
2016-10-22T06:58:59.697Z,132
2016-10-22T06:59:32.029Z,132
2016-10-22T07:00:04.368Z,124
2016-10-22T07:00:36.690Z,120
2016-10-22T07:01:09.033Z,120
2016-10-22T07:01:41.371Z,136
2016-10-22T07:02:13.694Z,148
2016-10-22T07:02:46.015Z,148
2016-10-22T07:03:18.332Z,152
2016-10-22T07:03:50.674Z,156
2016-10-22T07:04:23.012Z,164
2016-10-22T07:04:55.333Z,172
2016-10-22T07:05:27.662Z,196
2016-10-22T07:05:59.990Z,224
2016-10-22T07:06:32.315Z,252
2016-10-22T07:07:04.652Z,272
2016-10-22T07:07:36.980Z,272
2016-10-22T07:08:09.303Z,244
2016-10-22T07:08:41.635Z,228
2016-10-22T07:09:13.973Z,220
2016-10-22T07:09:46.420Z,224
2016-10-22T07:10:18.751Z,228
2016-10-22T07:10:51.110Z,232
2016-10-22T07:11:23.465Z,244
2016-10-22T07:11:55.821Z,260
2016-10-22T07:12:28.143Z,280
2016-10-22T07:13:00.465Z,296
2016-10-22T07:13:32.799Z,304
2016-10-22T07:14:05.128Z,308
2016-10-22T07:14:37.436Z,312
2016-10-22T07:15:09.777Z,324
2016-10-22T07:15:42.106Z,328
2016-10-22T07:16:14.437Z,340
2016-10-22T07:16:46.779Z,356
2016-10-22T07:17:19.104Z,364
2016-10-22T07:17:51.440Z,380
2016-10-22T07:18:23.751Z,376
2016-10-22T07:18:56.074Z,376
2016-10-22T07:19:28.402Z,384
2016-10-22T07:20:00.740Z,404
2016-10-22T07:20:33.073Z,408
2016-10-22T07:21:05.381Z,392
2016-10-22T07:21:37.706Z,368
2016-10-22T07:22:10.078Z,336
2016-10-22T07:22:42.408Z,304
2016-10-22T07:23:14.728Z,272
2016-10-22T07:23:47.058Z,272
2016-10-22T07:24:19.417Z,292
2016-10-22T07:24:51.772Z,300
2016-10-22T07:25:24.129Z,288
2016-10-22T07:25:56.454Z,272
2016-10-22T07:26:28.778Z,264
2016-10-22T07:27:01.105Z,276
2016-10-22T07:27:33.444Z,284
2016-10-22T07:28:05.779Z,292
2016-10-22T07:28:38.107Z,296
2016-10-22T07:29:10.434Z,284
2016-10-22T07:29:42.766Z,272
2016-10-22T07:30:15.086Z,260
2016-10-22T07:30:47.400Z,248
2016-10-22T07:31:19.728Z,240
2016-10-22T07:31:52.070Z,244
2016-10-22T07:32:24.444Z,248
2016-10-22T07:32:56.772Z,236
2016-10-22T07:33:29.095Z,228
2016-10-22T07:34:01.440Z,228
2016-10-22T07:34:33.773Z,236
2016-10-22T07:35:06.070Z,240
2016-10-22T07:35:38.391Z,248
2016-10-22T07:36:10.705Z,268
2016-10-22T07:36:43.046Z,276
2016-10-22T07:37:15.367Z,272
2016-10-22T07:37:47.699Z,272
2016-10-22T07:38:20.027Z,284
2016-10-22T07:38:52.344Z,292
2016-10-22T07:39:24.665Z,308
2016-10-22T07:39:56.981Z,332
2016-10-22T07:40:29.308Z,372
2016-10-22T07:41:01.644Z,388
2016-10-22T07:41:33.995Z,400
2016-10-22T07:42:06.315Z,392
2016-10-22T07:42:38.711Z,380
2016-10-22T07:43:11.021Z,360
2016-10-22T07:43:43.335Z,344
2016-10-22T07:44:15.673Z,332
2016-10-22T07:44:47.993Z,316
2016-10-22T07:45:20.312Z,320
2016-10-22T07:45:52.625Z,332
2016-10-22T07:46:24.987Z,332
2016-10-22T07:46:57.310Z,364
2016-10-22T07:47:29.654Z,420
2016-10-22T07:48:01.980Z,444
2016-10-22T07:48:34.314Z,412
2016-10-22T07:49:06.669Z,404
2016-10-22T07:49:39.009Z,424
2016-10-22T07:50:11.354Z,428
2016-10-22T07:50:43.675Z,416
2016-10-22T07:51:16.033Z,392